Time;durP1;ratioP1;P1;durP2;ratioP2;P2;SDS_P1;SDS_P2;PMS_P1;PMS_P2;Temp;Humidity;BMP_temperature;BMP_pressure;BME280_temperature;BME280_humidity;BME280_pressure;Samples;Min_cycle;Max_cycle;Signal;HPM_P1;HPM_P2
2023/06/30 00:02:41;;;;;;;16.27;9.90;;;;;;;;;;10490636;22;20015;-90
2023/06/30 00:06:49;;;;;;;13.70;10.75;;;;;;;;;;10506763;22;20338;-90
2023/06/30 00:10:52;;;;;;;18.80;10.77;;;;;;;;;;10463025;22;20019;-90
2023/06/30 00:14:57;;;;;;;16.25;10.73;;;;;;;;;;10490603;22;20091;-90
2023/06/30 00:19:04;;;;;;;18.55;10.95;;;;;;;;;;10490232;22;20095;-91
2023/06/30 00:23:11;;;;;;;17.23;10.75;;;;;;;;;;10506689;22;20351;-89
2023/06/30 00:27:14;;;;;;;16.17;11.38;;;;;;;;;;10507127;22;20015;-90
2023/06/30 00:31:18;;;;;;;15.93;10.65;;;;;;;;;;10490459;22;20023;-90
2023/06/30 00:35:21;;;;;;;16.00;10.90;;;;;;;;;;10462971;22;20015;-89
2023/06/30 00:39:27;;;;;;;15.65;11.30;;;;;;;;;;10490498;22;20040;-89
2023/06/30 00:43:30;;;;;;;14.88;10.07;;;;;;;;;;10462394;22;20026;-89
2023/06/30 00:47:35;;;;;;;16.75;11.23;;;;;;;;;;10490479;22;20083;-90
2023/06/30 00:51:38;;;;;;;16.95;10.85;;;;;;;;;;10490227;22;20023;-90
2023/06/30 00:55:41;;;;;;;13.25;9.65;;;;;;;;;;10490168;22;20100;-89
2023/06/30 00:59:48;;;;;;;13.82;10.10;;;;;;;;;;10462885;22;20015;-91
2023/06/30 01:04:01;;;;;;;20.58;11.85;;;;;;;;;;10466156;22;20019;-89
2023/06/30 01:08:11;;;;;;;15.07;10.70;;;;;;;;;;10510175;22;20068;-89
2023/06/30 01:12:14;;;;;;;15.68;10.55;;;;;;;;;;10510258;22;20431;-90
2023/06/30 01:16:19;;;;;;;17.60;11.55;;;;;;;;;;10492293;22;20055;-89
2023/06/30 01:20:29;;;;;;;18.35;12.05;;;;;;;;;;10492539;22;20014;-89
2023/06/30 01:24:34;;;;;;;22.25;11.60;;;;;;;;;;10492786;22;20019;-89
2023/06/30 01:28:38;;;;;;;18.77;11.65;;;;;;;;;;10509696;22;20038;-90
2023/06/30 01:32:41;;;;;;;15.88;11.63;;;;;;;;;;10491989;22;20339;-91
2023/06/30 01:36:46;;;;;;;16.35;10.75;;;;;;;;;;10492751;22;20090;-90
2023/06/30 01:40:49;;;;;;;19.30;11.25;;;;;;;;;;10492237;22;20026;-90
2023/06/30 01:44:53;;;;;;;19.58;11.95;;;;;;;;;;10492291;22;20019;-91
2023/06/30 01:48:56;;;;;;;19.73;12.45;;;;;;;;;;10492582;22;20102;-91
2023/06/30 01:53:01;;;;;;;19.63;12.25;;;;;;;;;;10492322;22;20046;-91
2023/06/30 01:57:04;;;;;;;14.43;10.10;;;;;;;;;;10491319;22;20025;-90
2023/06/30 02:01:07;;;;;;;17.15;11.60;;;;;;;;;;10466944;22;20465;-89
2023/06/30 02:05:10;;;;;;;17.60;11.27;;;;;;;;;;10436260;22;20312;-90
2023/06/30 02:09:15;;;;;;;18.48;11.50;;;;;;;;;;10465802;22;20327;-90
2023/06/30 02:13:18;;;;;;;17.83;10.98;;;;;;;;;;10492062;22;20037;-90
2023/06/30 02:17:28;;;;;;;16.80;10.98;;;;;;;;;;10492294;22;20025;-91
2023/06/30 02:21:31;;;;;;;14.07;10.25;;;;;;;;;;10509898;22;20071;-91
2023/06/30 02:25:35;;;;;;;16.25;11.02;;;;;;;;;;10491720;22;20473;-91
2023/06/30 02:29:39;;;;;;;17.90;11.05;;;;;;;;;;10464804;22;20018;-91
2023/06/30 02:33:42;;;;;;;17.25;11.30;;;;;;;;;;10492170;22;20334;-90
2023/06/30 02:37:45;;;;;;;18.00;12.20;;;;;;;;;;10491975;22;20022;-90
2023/06/30 02:41:49;;;;;;;22.45;16.02;;;;;;;;;;10492042;22;20022;-90
2023/06/30 02:45:52;;;;;;;20.77;14.27;;;;;;;;;;10491843;22;20018;-91
2023/06/30 02:49:55;;;;;;;24.73;18.75;;;;;;;;;;10491749;22;20468;-91
2023/06/30 02:53:58;;;;;;;20.58;13.82;;;;;;;;;;10492049;22;20050;-91
2023/06/30 02:58:02;;;;;;;23.80;13.85;;;;;;;;;;10491769;22;20460;-91
2023/06/30 03:02:08;;;;;;;21.63;12.57;;;;;;;;;;10491562;22;20015;-91
2023/06/30 03:06:11;;;;;;;20.75;14.02;;;;;;;;;;10463980;22;20057;-90
2023/06/30 03:10:14;;;;;;;22.45;16.73;;;;;;;;;;10491674;22;20339;-90
2023/06/30 03:14:19;;;;;;;17.60;12.13;;;;;;;;;;10491360;22;20075;-90
2023/06/30 03:18:22;;;;;;;18.15;12.82;;;;;;;;;;10491291;22;20046;-90
2023/06/30 03:22:25;;;;;;;23.85;13.38;;;;;;;;;;10491402;22;20041;-90
2023/06/30 03:26:28;;;;;;;23.10;15.65;;;;;;;;;;10491036;22;20389;-90
2023/06/30 03:30:32;;;;;;;17.48;11.07;;;;;;;;;;10491017;22;20042;-89
2023/06/30 03:34:38;;;;;;;14.70;10.50;;;;;;;;;;10490878;22;20475;-91
2023/06/30 03:38:41;;;;;;;15.20;10.20;;;;;;;;;;10508236;22;20090;-90
2023/06/30 03:42:44;;;;;;;13.07;9.70;;;;;;;;;;10491177;22;20014;-89
2023/06/30 03:46:48;;;;;;;12.07;8.45;;;;;;;;;;10491188;22;20105;-90
2023/06/30 03:50:54;;;;;;;10.98;8.43;;;;;;;;;;10490881;22;20462;-89
2023/06/30 03:54:56;;;;;;;12.30;8.20;;;;;;;;;;10508841;22;20026;-90
2023/06/30 03:58:59;;;;;;;11.63;8.57;;;;;;;;;;10490793;22;20015;-89
2023/06/30 04:03:09;;;;;;;11.70;8.30;;;;;;;;;;10492529;22;20564;-89
2023/06/30 04:07:13;;;;;;;12.70;8.50;;;;;;;;;;10466234;22;20144;-86
2023/06/30 04:11:16;;;;;;;10.55;7.75;;;;;;;;;;10492245;22;20019;-89
2023/06/30 04:15:20;;;;;;;12.35;8.48;;;;;;;;;;10465165;22;20071;-89
2023/06/30 04:19:26;;;;;;;9.43;7.93;;;;;;;;;;10494186;22;20087;-89
2023/06/30 04:23:30;;;;;;;10.27;7.80;;;;;;;;;;10506203;22;20094;-91
2023/06/30 04:27:33;;;;;;;11.10;7.07;;;;;;;;;;10488227;22;20060;-90
2023/06/30 04:31:39;;;;;;;10.25;6.78;;;;;;;;;;10461927;22;20021;-90
2023/06/30 04:35:45;;;;;;;8.77;6.93;;;;;;;;;;10461877;22;20019;-90
2023/06/30 04:39:50;;;;;;;12.20;8.43;;;;;;;;;;10492091;22;20022;-89
2023/06/30 04:43:53;;;;;;;9.52;6.68;;;;;;;;;;10492578;22;20021;-89
2023/06/30 04:47:56;;;;;;;8.60;6.68;;;;;;;;;;10492755;22;20375;-89
2023/06/30 04:52:00;;;;;;;10.80;7.70;;;;;;;;;;10492663;22;20019;-89
2023/06/30 04:56:03;;;;;;;11.95;8.13;;;;;;;;;;10491367;22;20022;-89
2023/06/30 05:00:08;;;;;;;11.18;8.38;;;;;;;;;;10493090;22;20747;-89
2023/06/30 05:04:12;;;;;;;10.18;5.90;;;;;;;;;;10493030;22;20021;-88
2023/06/30 05:08:17;;;;;;;8.93;6.50;;;;;;;;;;10464997;22;20027;-89
2023/06/30 05:12:28;;;;;;;8.60;5.88;;;;;;;;;;10462195;22;20022;-89
2023/06/30 05:16:31;;;;;;;9.35;6.03;;;;;;;;;;10459592;22;20057;-88
2023/06/30 05:20:36;;;;;;;7.00;5.88;;;;;;;;;;10487482;22;20026;-89
2023/06/30 05:24:40;;;;;;;8.02;5.82;;;;;;;;;;10486957;22;20023;-88
2023/06/30 05:28:43;;;;;;;6.68;5.20;;;;;;;;;;10487595;22;20026;-87
2023/06/30 05:32:46;;;;;;;7.18;5.30;;;;;;;;;;10488355;22;20042;-88
2023/06/30 06:24:08;;;;;;;4.38;2.20;;;;;;;;;;8115629;29;20054;-96
2023/06/30 06:59:43;;;;;;;3.78;2.40;;;;;;;;;;8226388;28;20059;-96
2023/06/30 07:03:58;;;;;;;4.10;2.40;;;;;;;;;;8251364;28;20074;-96
2023/06/30 07:08:08;;;;;;;3.50;2.25;;;;;;;;;;8214314;28;20070;-95
2023/06/30 07:33:43;;;;;;;6.47;2.15;;;;;;;;;;8814801;23;20082;-96
2023/06/30 07:49:04;;;;;;;2.72;2.00;;;;;;;;;;8345147;23;20061;-96
2023/06/30 08:31:55;;;;;;;3.95;1.98;;;;;;;;;;4025827;23;20050;-96
2023/06/30 08:35:59;;;;;;;3.20;2.10;;;;;;;;;;8268107;28;20225;-96
2023/06/30 08:40:05;;;;;;;3.83;2.35;;;;;;;;;;8264949;28;20054;-96
2023/06/30 08:44:13;;;;;;;2.97;2.13;;;;;;;;;;8264752;28;20054;-95
2023/06/30 08:48:33;;;;;;;4.32;2.40;;;;;;;;;;8410819;23;20078;-96
2023/06/30 08:52:37;;;;;;;5.82;2.20;;;;;;;;;;8270830;28;20118;-96
2023/06/30 08:56:45;;;;;;;3.97;2.08;;;;;;;;;;8287494;28;20120;-94
2023/06/30 09:01:08;;;;;;;3.13;2.10;;;;;;;;;;8282507;28;20054;-96
2023/06/30 09:05:15;;;;;;;4.28;2.30;;;;;;;;;;8274312;23;20051;-96
2023/06/30 09:28:20;;;;;;;5.47;2.10;;;;;;;;;;9459085;23;20034;-96
2023/06/30 09:32:57;;;;;;;22.33;14.50;;;;;;;;;;8623814;23;20081;-96
2023/06/30 09:37:01;;;;;;;3.15;1.98;;;;;;;;;;8305218;28;20053;-95
2023/06/30 09:45:26;;;;;;;2.85;1.92;;;;;;;;;;8956975;23;20097;-95
2023/06/30 09:49:32;;;;;;;4.80;2.38;;;;;;;;;;8223509;28;20073;-94
2023/06/30 09:53:37;;;;;;;2.53;1.90;;;;;;;;;;8215593;28;20490;-94
2023/06/30 09:57:43;;;;;;;3.95;2.20;;;;;;;;;;8206062;28;20058;-93
2023/06/30 10:02:02;;;;;;;4.75;2.33;;;;;;;;;;8239642;28;20478;-94
2023/06/30 10:06:09;;;;;;;3.25;2.20;;;;;;;;;;8228796;28;20050;-94
2023/06/30 10:10:13;;;;;;;2.80;2.00;;;;;;;;;;8246211;28;20054;-95
2023/06/30 10:14:21;;;;;;;3.30;2.00;;;;;;;;;;8209223;28;20055;-96
2023/06/30 10:18:30;;;;;;;5.30;2.50;;;;;;;;;;8220729;28;20474;-95
2023/06/30 10:22:34;;;;;;;4.50;2.42;;;;;;;;;;8238064;28;20053;-95
2023/06/30 10:26:56;;;;;;;4.32;2.60;;;;;;;;;;8238979;28;20524;-94
2023/06/30 10:31:02;;;;;;;5.18;2.70;;;;;;;;;;8235698;28;20051;-94
2023/06/30 10:35:09;;;;;;;3.15;2.30;;;;;;;;;;8257002;23;20065;-93
2023/06/30 10:39:25;;;;;;;4.35;2.53;;;;;;;;;;8298369;28;20056;-94
2023/06/30 10:43:51;;;;;;;3.45;2.22;;;;;;;;;;8286471;23;20156;-96
2023/06/30 10:47:56;;;;;;;4.93;2.35;;;;;;;;;;8272083;28;20050;-96
2023/06/30 10:52:26;;;;;;;4.20;2.50;;;;;;;;;;8247910;28;20050;-96
2023/06/30 10:56:34;;;;;;;5.35;2.80;;;;;;;;;;8239390;28;20058;-96
2023/06/30 11:01:00;;;;;;;4.18;2.60;;;;;;;;;;8236966;28;20452;-95
2023/06/30 11:05:19;;;;;;;5.20;2.50;;;;;;;;;;8279820;28;20046;-94
2023/06/30 11:09:24;;;;;;;3.78;2.50;;;;;;;;;;8277480;28;20053;-94
2023/06/30 11:13:38;;;;;;;3.00;2.58;;;;;;;;;;8274501;28;20065;-94
2023/06/30 11:18:01;;;;;;;4.63;2.88;;;;;;;;;;8274487;28;20050;-94
2023/06/30 11:22:25;;;;;;;7.28;3.10;;;;;;;;;;8274164;28;20058;-94
2023/06/30 11:26:37;;;;;;;6.35;2.70;;;;;;;;;;8273352;28;20077;-94
2023/06/30 11:35:24;;;;;;;5.78;2.70;;;;;;;;;;8325238;23;20158;-95
2023/06/30 11:39:27;;;;;;;3.88;2.85;;;;;;;;;;8311413;28;20560;-93
2023/06/30 11:43:46;;;;;;;4.53;2.50;;;;;;;;;;8311763;28;20046;-96
2023/06/30 11:47:54;;;;;;;4.72;2.50;;;;;;;;;;8259200;28;20042;-95
2023/06/30 11:52:01;;;;;;;4.32;2.92;;;;;;;;;;8303098;28;20052;-94
2023/06/30 11:56:12;;;;;;;3.33;2.33;;;;;;;;;;8262188;23;20055;-94
2023/06/30 12:00:19;;;;;;;3.42;2.10;;;;;;;;;;8247803;28;20069;-95
2023/06/30 12:04:37;;;;;;;5.43;2.45;;;;;;;;;;8239758;28;20054;-95
2023/06/30 12:08:54;;;;;;;6.22;2.78;;;;;;;;;;8221548;28;20411;-95
2023/06/30 12:13:12;;;;;;;5.05;2.75;;;;;;;;;;8393023;23;22220;-95
2023/06/30 12:22:12;;;;;;;;;;;;;;;;;;8260701;28;20054;-96
2023/06/30 12:26:18;;;;;;;4.65;2.50;;;;;;;;;;8258612;28;20024;-94
2023/06/30 12:30:22;;;;;;;4.85;2.70;;;;;;;;;;8272490;28;20101;-93
2023/06/30 12:34:40;;;;;;;4.80;2.97;;;;;;;;;;8265365;28;20137;-94
2023/06/30 12:38:45;;;;;;;5.45;2.70;;;;;;;;;;8271271;28;20617;-94
2023/06/30 12:42:48;;;;;;;5.60;2.53;;;;;;;;;;8262568;28;20055;-94
2023/06/30 12:47:00;;;;;;;4.50;2.38;;;;;;;;;;8261350;28;20050;-94
2023/06/30 12:51:06;;;;;;;4.32;2.35;;;;;;;;;;8246024;28;20410;-93
2023/06/30 12:55:22;;;;;;;3.05;2.50;;;;;;;;;;8259675;28;20050;-94
2023/06/30 12:59:27;;;;;;;4.28;2.50;;;;;;;;;;8266099;28;20038;-95
2023/06/30 13:07:52;;;;;;;3.97;2.58;;;;;;;;;;8268719;28;20049;-94
2023/06/30 13:11:57;;;;;;;4.28;2.30;;;;;;;;;;8289436;28;20077;-95
2023/06/30 13:16:00;;;;;;;3.65;2.65;;;;;;;;;;8260658;28;20690;-93
2023/06/30 13:24:31;;;;;;;4.05;2.40;;;;;;;;;;8299298;28;20060;-93
2023/06/30 13:28:37;;;;;;;5.40;2.83;;;;;;;;;;8296800;23;20355;-93
2023/06/30 13:32:42;;;;;;;4.32;2.83;;;;;;;;;;8286018;28;20062;-93
2023/06/30 13:36:45;;;;;;;3.22;2.42;;;;;;;;;;8292186;28;20046;-94
2023/06/30 13:40:50;;;;;;;13.40;3.25;;;;;;;;;;8297626;28;20136;-94
2023/06/30 13:44:53;;;;;;;6.15;3.00;;;;;;;;;;8297343;28;20069;-94
2023/06/30 13:48:57;;;;;;;3.85;2.78;;;;;;;;;;8297804;28;20073;-93
2023/06/30 13:53:01;;;;;;;5.38;2.88;;;;;;;;;;8298423;28;20060;-92
2023/06/30 13:57:07;;;;;;;6.32;2.83;;;;;;;;;;8294040;28;20374;-92
2023/06/30 14:01:11;;;;;;;4.95;2.78;;;;;;;;;;8284501;28;20050;-94
2023/06/30 14:05:15;;;;;;;5.38;3.00;;;;;;;;;;8302573;28;20041;-92
2023/06/30 14:09:19;;;;;;;5.75;3.30;;;;;;;;;;8303208;28;20045;-92
2023/06/30 14:13:29;;;;;;;7.20;2.80;;;;;;;;;;8293921;28;20117;-92
2023/06/30 14:17:34;;;;;;;4.43;3.25;;;;;;;;;;8285829;28;20042;-92
2023/06/30 14:21:41;;;;;;;4.05;3.15;;;;;;;;;;8296550;28;20101;-93
2023/06/30 14:25:44;;;;;;;5.03;3.10;;;;;;;;;;8300532;28;20046;-92
2023/06/30 14:29:49;;;;;;;4.55;3.03;;;;;;;;;;8272963;28;20062;-91
2023/06/30 14:33:52;;;;;;;5.10;3.10;;;;;;;;;;8273389;28;20042;-92
2023/06/30 14:37:55;;;;;;;3.72;2.80;;;;;;;;;;8250317;28;20073;-92
2023/06/30 14:41:58;;;;;;;6.38;3.35;;;;;;;;;;8271866;28;20045;-93
2023/06/30 14:46:09;;;;;;;4.43;2.72;;;;;;;;;;8262044;28;20039;-92
2023/06/30 14:50:13;;;;;;;5.20;3.20;;;;;;;;;;8227432;28;20054;-92
2023/06/30 14:54:19;;;;;;;4.65;3.30;;;;;;;;;;8278774;28;20046;-93
2023/06/30 14:58:22;;;;;;;6.68;4.00;;;;;;;;;;8280344;28;20041;-93
2023/06/30 15:02:27;;;;;;;7.03;3.40;;;;;;;;;;8270423;28;20046;-93
2023/06/30 15:06:34;;;;;;;4.78;3.42;;;;;;;;;;8283614;28;20074;-92
2023/06/30 15:10:39;;;;;;;5.40;3.35;;;;;;;;;;8284140;28;20039;-92
2023/06/30 15:14:43;;;;;;;4.90;3.80;;;;;;;;;;8280628;28;20057;-92
2023/06/30 15:18:50;;;;;;;4.43;3.40;;;;;;;;;;8276461;28;20038;-92
2023/06/30 15:22:54;;;;;;;5.35;3.60;;;;;;;;;;8271709;28;20043;-92
2023/06/30 15:26:57;;;;;;;4.82;3.30;;;;;;;;;;8249230;28;20482;-91
2023/06/30 15:31:00;;;;;;;5.18;3.40;;;;;;;;;;8272067;28;20124;-92
2023/06/30 15:35:06;;;;;;;4.93;3.63;;;;;;;;;;8274237;28;20058;-92
2023/06/30 15:39:09;;;;;;;5.95;3.72;;;;;;;;;;8254662;28;20457;-91
2023/06/30 15:43:13;;;;;;;6.22;3.63;;;;;;;;;;8272215;28;20069;-92
2023/06/30 15:47:16;;;;;;;5.72;3.80;;;;;;;;;;8258102;28;20111;-93
2023/06/30 15:51:21;;;;;;;6.60;4.22;;;;;;;;;;8271189;28;20070;-92
2023/06/30 15:55:24;;;;;;;8.07;4.20;;;;;;;;;;8272987;28;20069;-93
2023/06/30 15:59:28;;;;;;;5.80;3.97;;;;;;;;;;8272528;28;20046;-93
2023/06/30 16:03:32;;;;;;;8.30;3.90;;;;;;;;;;8267628;28;20061;-92
2023/06/30 16:07:36;;;;;;;4.45;3.50;;;;;;;;;;8261897;28;20050;-92
2023/06/30 16:11:39;;;;;;;4.68;3.47;;;;;;;;;;8266777;28;20045;-92
2023/06/30 16:15:43;;;;;;;6.43;5.63;;;;;;;;;;8261757;28;20069;-93
2023/06/30 16:19:46;;;;;;;15.80;14.15;;;;;;;;;;8270518;28;20042;-92
2023/06/30 16:23:55;;;;;;;8.52;7.22;;;;;;;;;;8271195;28;20433;-92
2023/06/30 16:27:58;;;;;;;6.85;4.85;;;;;;;;;;8269766;28;20047;-93
2023/06/30 16:32:03;;;;;;;12.80;5.35;;;;;;;;;;8289778;28;20065;-94
2023/06/30 16:36:07;;;;;;;5.18;4.18;;;;;;;;;;8301110;28;20037;-93
2023/06/30 16:40:12;;;;;;;5.03;4.00;;;;;;;;;;8290188;28;20051;-95
2023/06/30 16:44:16;;;;;;;4.95;3.85;;;;;;;;;;8300248;28;20049;-94
2023/06/30 16:48:19;;;;;;;5.82;4.22;;;;;;;;;;8296398;28;20052;-92
2023/06/30 16:52:42;;;;;;;5.53;4.30;;;;;;;;;;8301470;28;20497;-93
2023/06/30 16:56:46;;;;;;;10.95;9.68;;;;;;;;;;8301387;28;20073;-91
2023/06/30 17:00:49;;;;;;;11.90;8.18;;;;;;;;;;8293674;28;20133;-92
2023/06/30 17:04:53;;;;;;;14.18;8.32;;;;;;;;;;8296132;28;20405;-93
2023/06/30 17:08:58;;;;;;;10.23;8.70;;;;;;;;;;8300921;28;20050;-91
2023/06/30 17:13:05;;;;;;;24.30;15.35;;;;;;;;;;8301705;28;20601;-92
2023/06/30 17:17:12;;;;;;;43.63;25.33;;;;;;;;;;8301937;28;20041;-93
2023/06/30 17:21:16;;;;;;;57.38;30.33;;;;;;;;;;8287369;28;20053;-91
2023/06/30 17:25:21;;;;;;;40.25;22.00;;;;;;;;;;8292045;28;20041;-92
2023/06/30 17:29:28;;;;;;;29.70;16.00;;;;;;;;;;8293903;28;20104;-92
2023/06/30 17:33:34;;;;;;;21.27;12.80;;;;;;;;;;8306759;28;20049;-92
2023/06/30 17:37:38;;;;;;;26.02;14.95;;;;;;;;;;8295843;28;20037;-92
2023/06/30 17:41:44;;;;;;;25.35;14.68;;;;;;;;;;8291138;28;20135;-92
2023/06/30 17:45:50;;;;;;;24.60;15.13;;;;;;;;;;8307031;28;20057;-92
2023/06/30 17:49:56;;;;;;;23.38;15.10;;;;;;;;;;8305928;28;20053;-92
2023/06/30 17:54:14;;;;;;;26.02;15.73;;;;;;;;;;8203143;28;20051;-93
2023/06/30 17:58:25;;;;;;;24.85;15.60;;;;;;;;;;8206756;29;20058;-93
2023/06/30 18:02:38;;;;;;;21.95;12.95;;;;;;;;;;8209681;29;20067;-94
2023/06/30 18:07:03;;;;;;;22.48;11.95;;;;;;;;;;8206631;29;20431;-93
2023/06/30 18:11:09;;;;;;;15.52;9.63;;;;;;;;;;8202824;29;20058;-95
2023/06/30 18:15:13;;;;;;;14.88;10.35;;;;;;;;;;8216033;28;20455;-94
2023/06/30 18:19:21;;;;;;;14.23;8.90;;;;;;;;;;8183942;29;20062;-94
2023/06/30 18:23:25;;;;;;;18.17;10.82;;;;;;;;;;8219891;28;20050;-94
2023/06/30 18:27:30;;;;;;;22.55;16.42;;;;;;;;;;8295724;28;20046;-94
2023/06/30 18:31:37;;;;;;;18.23;12.57;;;;;;;;;;8292912;28;20054;-95
2023/06/30 18:35:43;;;;;;;19.02;12.98;;;;;;;;;;8275456;28;20508;-94
2023/06/30 18:39:46;;;;;;;19.15;13.10;;;;;;;;;;8294193;28;20049;-95
2023/06/30 18:43:50;;;;;;;18.00;12.30;;;;;;;;;;8296844;28;20045;-95
2023/06/30 18:47:55;;;;;;;16.38;12.95;;;;;;;;;;8270489;28;20057;-95
2023/06/30 18:52:02;;;;;;;19.65;13.02;;;;;;;;;;8280045;28;20054;-95
2023/06/30 18:56:21;;;;;;;16.17;11.63;;;;;;;;;;8279818;28;20061;-93
2023/06/30 19:05:52;;;;;;;15.75;11.45;;;;;;;;;;8223004;28;20047;-89
2023/06/30 19:15:49;;;;;;;13.07;9.77;;;;;;;;;;8028486;29;20053;-90
2023/06/30 19:29:27;;;;;;;14.05;6.35;;;;;;;;;;7956238;29;20082;-94
2023/06/30 19:33:57;;;;;;;15.38;6.15;;;;;;;;;;7949382;29;20058;-96
2023/06/30 19:38:02;;;;;;;11.95;5.57;;;;;;;;;;7970704;29;20053;-96
2023/06/30 19:42:07;;;;;;;12.55;5.75;;;;;;;;;;8045688;29;20081;-94
2023/06/30 19:46:15;;;;;;;13.13;6.18;;;;;;;;;;8028858;29;20569;-95
2023/06/30 19:50:49;;;;;;;15.70;6.30;;;;;;;;;;8038085;29;20136;-96
2023/06/30 19:55:47;;;;;;;9.25;5.03;;;;;;;;;;8074630;29;20058;-95
2023/06/30 20:00:40;;;;;;;;;;;;;;;;;;7979706;29;20055;-95
2023/06/30 20:04:56;;;;;;;13.32;5.40;;;;;;;;;;7960900;29;19932;-96
2023/06/30 20:09:07;;;;;;;9.20;4.75;;;;;;;;;;7965065;29;20062;-94
2023/06/30 20:18:04;;;;;;;12.25;5.10;;;;;;;;;;7996030;29;20054;-95
2023/06/30 20:44:08;;;;;;;6.07;4.45;;;;;;;;;;8112391;29;20139;-95
2023/06/30 20:48:12;;;;;;;9.57;4.95;;;;;;;;;;8120339;29;20055;-94
2023/06/30 20:52:17;;;;;;;5.95;4.40;;;;;;;;;;8106964;29;20056;-94
2023/06/30 20:56:22;;;;;;;11.85;4.53;;;;;;;;;;8098421;29;20103;-94
2023/06/30 21:00:25;;;;;;;8.65;4.15;;;;;;;;;;8098181;29;20523;-95
2023/06/30 21:04:29;;;;;;;6.30;4.18;;;;;;;;;;8107171;29;20499;-94
2023/06/30 21:08:32;;;;;;;6.28;4.20;;;;;;;;;;8192164;28;20066;-95
2023/06/30 21:12:37;;;;;;;7.75;4.80;;;;;;;;;;8232830;28;20058;-94
2023/06/30 21:16:41;;;;;;;6.57;4.57;;;;;;;;;;8223128;28;20125;-95
2023/06/30 21:20:44;;;;;;;5.22;4.32;;;;;;;;;;8254911;28;20486;-93
2023/06/30 21:24:47;;;;;;;6.68;3.90;;;;;;;;;;8267586;28;20038;-93
2023/06/30 21:28:52;;;;;;;6.85;4.35;;;;;;;;;;8250993;28;20050;-95
2023/06/30 21:32:56;;;;;;;6.40;4.32;;;;;;;;;;8292052;28;20082;-95
2023/06/30 21:36:59;;;;;;;7.07;4.82;;;;;;;;;;8275606;28;20553;-94
2023/06/30 21:41:06;;;;;;;7.57;4.80;;;;;;;;;;8309369;28;20114;-96
2023/06/30 21:50:43;;;;;;;7.85;5.07;;;;;;;;;;8190692;29;20424;-96
2023/06/30 21:54:54;;;;;;;5.90;4.80;;;;;;;;;;8170189;29;20138;-96
2023/06/30 21:59:15;;;;;;;7.82;5.45;;;;;;;;;;8191247;29;20040;-96
2023/06/30 22:03:33;;;;;;;6.60;5.28;;;;;;;;;;8154888;29;20063;-96
2023/06/30 22:23:19;;;;;;;7.68;5.70;;;;;;;;;;9539893;23;20054;-96
2023/06/30 22:27:23;;;;;;;5.90;5.28;;;;;;;;;;8262144;28;20406;-96
2023/06/30 23:32:05;;;;;;;11.07;9.82;;;;;;;;;;8105203;29;20049;-96
2023/06/30 23:36:26;;;;;;;10.80;8.57;;;;;;;;;;8110865;29;20056;-95
2023/06/30 23:45:27;;;;;;;10.90;9.32;;;;;;;;;;8062279;29;20064;-94
2023/06/30 23:49:31;;;;;;;12.52;9.70;;;;;;;;;;8089794;29;20056;-95
2023/06/30 23:53:34;;;;;;;15.40;10.05;;;;;;;;;;8071105;29;20516;-95
2023/06/30 23:57:37;;;;;;;12.32;10.02;;;;;;;;;;8089870;29;20053;-93
